Time;durP1;ratioP1;P1;durP2;ratioP2;P2;SDS_P1;SDS_P2;PMS_P1;PMS_P2;Temp;Humidity;BMP_temperature;BMP_pressure;BME280_temperature;BME280_humidity;BME280_pressure;Samples;Min_cycle;Max_cycle;Signal;HPM_P1;HPM_P2
2022/03/15 00:00:23;;;;;;;3.90;2.67;;;5.10;99.90;;;;;;4927713;29;20094;-75
2022/03/15 00:02:49;;;;;;;2.03;1.70;;;5.10;99.90;;;;;;4927205;29;20039;-76
2022/03/15 00:05:18;;;;;;;2.73;2.00;;;5.10;99.90;;;;;;4927567;29;20126;-75
2022/03/15 00:07:44;;;;;;;1.70;1.33;;;5.10;99.90;;;;;;4927816;29;20935;-75
2022/03/15 00:10:15;;;;;;;3.40;1.67;;;5.10;99.90;;;;;;4927570;29;20059;-75
2022/03/15 00:12:45;;;;;;;1.27;1.17;;;5.10;99.90;;;;;;4927120;29;20508;-75
2022/03/15 00:15:12;;;;;;;1.47;1.40;;;5.10;99.90;;;;;;4927741;29;20051;-75
2022/03/15 00:17:39;;;;;;;1.23;1.23;;;5.10;99.90;;;;;;4925616;29;20478;-75
2022/03/15 00:20:07;;;;;;;2.03;1.93;;;5.10;99.90;;;;;;4927035;29;20122;-75
2022/03/15 00:22:35;;;;;;;2.10;1.40;;;5.00;99.90;;;;;;4925800;29;20040;-76
2022/03/15 00:25:03;;;;;;;2.40;2.03;;;5.00;99.90;;;;;;4926892;29;20549;-76
2022/03/15 00:27:29;;;;;;;0.87;0.87;;;5.00;99.90;;;;;;4926505;29;20040;-75
2022/03/15 00:29:54;;;;;;;2.43;2.17;;;5.00;99.90;;;;;;4926727;29;20052;-76
2022/03/15 00:32:20;;;;;;;2.37;2.20;;;5.00;99.90;;;;;;4926797;29;20048;-75
2022/03/15 00:34:49;;;;;;;1.37;1.27;;;5.00;99.90;;;;;;4926299;29;20399;-76
2022/03/15 00:37:14;;;;;;;1.67;1.27;;;4.90;99.90;;;;;;4927305;29;20135;-75
2022/03/15 00:39:41;;;;;;;3.27;1.53;;;4.90;99.90;;;;;;4925811;29;20123;-75
2022/03/15 00:42:07;;;;;;;2.33;1.20;;;4.90;99.90;;;;;;4924727;29;20043;-76
2022/03/15 00:44:33;;;;;;;5.60;1.30;;;4.90;99.90;;;;;;4920717;29;20288;-76
2022/03/15 00:46:59;;;;;;;2.77;2.53;;;4.90;99.90;;;;;;4907544;29;20090;-76
2022/03/15 00:49:25;;;;;;;1.10;1.10;;;4.90;99.90;;;;;;4907479;29;20131;-75
2022/03/15 00:51:51;;;;;;;4.87;1.03;;;4.90;99.90;;;;;;4907690;29;20040;-75
2022/03/15 00:54:16;;;;;;;10.60;3.23;;;4.90;99.90;;;;;;4907544;29;20044;-75
2022/03/15 00:56:42;;;;;;;1.33;1.23;;;4.90;99.90;;;;;;4906976;29;20051;-75
2022/03/15 00:59:09;;;;;;;2.13;2.00;;;4.90;99.90;;;;;;4906777;29;20136;-75
2022/03/15 01:01:35;;;;;;;5.57;2.87;;;4.80;99.90;;;;;;4909146;29;20603;-75
2022/03/15 01:04:01;;;;;;;4.40;2.60;;;4.80;99.90;;;;;;4925437;29;20123;-75
2022/03/15 01:06:26;;;;;;;1.63;1.53;;;4.90;99.90;;;;;;4926502;29;20498;-75
2022/03/15 01:08:52;;;;;;;1.60;1.50;;;4.80;99.90;;;;;;4924872;29;20044;-75
2022/03/15 01:11:18;;;;;;;2.50;1.87;;;4.80;99.90;;;;;;4926075;29;20075;-75
2022/03/15 01:13:44;;;;;;;3.07;2.37;;;4.80;99.90;;;;;;4925504;29;20047;-76
2022/03/15 01:16:10;;;;;;;2.80;2.53;;;4.80;99.90;;;;;;4926330;29;20050;-75
2022/03/15 01:18:36;;;;;;;3.77;2.13;;;4.80;99.90;;;;;;4926238;29;20107;-75
2022/03/15 01:21:02;;;;;;;4.70;2.40;;;4.80;99.90;;;;;;4924408;29;20487;-75
2022/03/15 01:23:28;;;;;;;4.33;3.23;;;4.80;99.90;;;;;;4926406;29;20841;-76
2022/03/15 01:25:55;;;;;;;4.50;3.17;;;4.80;99.90;;;;;;4925509;29;20082;-75
2022/03/15 01:28:21;;;;;;;2.73;2.37;;;4.70;99.90;;;;;;4925282;29;20094;-75
2022/03/15 01:30:46;;;;;;;14.23;4.07;;;4.70;99.90;;;;;;4925700;29;20043;-76
2022/03/15 01:33:12;;;;;;;13.77;2.90;;;4.70;99.90;;;;;;4926111;29;20047;-75
2022/03/15 01:35:38;;;;;;;3.27;3.07;;;4.70;99.90;;;;;;4926065;29;20043;-75
2022/03/15 01:38:04;;;;;;;2.60;2.13;;;4.80;99.90;;;;;;4925569;29;20055;-75
2022/03/15 01:40:29;;;;;;;2.97;2.70;;;4.80;99.90;;;;;;4924457;29;20079;-75
2022/03/15 01:42:55;;;;;;;4.67;3.40;;;4.80;99.90;;;;;;4924837;29;20043;-75
2022/03/15 01:45:30;;;;;;;2.90;2.10;;;4.80;99.90;;;;;;4914745;29;20388;-76
2022/03/15 01:47:56;;;;;;;4.43;2.93;;;4.90;99.90;;;;;;4905132;29;20071;-76
2022/03/15 01:50:22;;;;;;;2.93;2.73;;;4.90;99.90;;;;;;4906963;29;20044;-75
2022/03/15 01:52:48;;;;;;;3.03;2.73;;;4.90;99.90;;;;;;4906143;29;20072;-75
2022/03/15 01:55:14;;;;;;;3.80;3.37;;;4.90;99.90;;;;;;4905654;29;20040;-75
2022/03/15 01:57:40;;;;;;;8.20;3.70;;;4.90;99.90;;;;;;4906300;29;20652;-75
2022/03/15 02:00:06;;;;;;;4.53;4.13;;;5.00;99.90;;;;;;4904869;29;20052;-75
2022/03/15 02:02:32;;;;;;;3.60;3.30;;;5.00;99.90;;;;;;4936408;23;20074;-75
2022/03/15 02:04:58;;;;;;;3.90;3.23;;;5.00;99.90;;;;;;4944236;28;20059;-75
2022/03/15 02:07:24;;;;;;;2.23;2.03;;;5.00;99.90;;;;;;4944851;28;20445;-76
2022/03/15 02:09:50;;;;;;;2.63;2.43;;;5.10;99.90;;;;;;4942812;29;20046;-76
2022/03/15 02:12:15;;;;;;;11.10;3.37;;;5.10;99.90;;;;;;4943600;28;20117;-75
2022/03/15 02:14:41;;;;;;;3.90;2.13;;;5.10;99.90;;;;;;4944899;28;20706;-75
2022/03/15 02:17:06;;;;;;;4.20;2.50;;;5.10;99.90;;;;;;4942945;28;20054;-76
2022/03/15 02:19:32;;;;;;;3.40;3.10;;;5.10;99.90;;;;;;4944119;28;20045;-75
2022/03/15 02:21:58;;;;;;;3.90;2.93;;;5.10;99.90;;;;;;4942674;28;20126;-76
2022/03/15 02:24:24;;;;;;;9.17;5.07;;;5.10;99.90;;;;;;4944535;28;20046;-75
2022/03/15 02:26:51;;;;;;;3.63;3.37;;;5.20;99.90;;;;;;4943389;28;20042;-76
2022/03/15 02:29:18;;;;;;;7.60;4.03;;;5.20;99.90;;;;;;4926627;28;20059;-75
2022/03/15 02:31:43;;;;;;;2.90;2.60;;;5.20;99.90;;;;;;4925395;29;20040;-75
2022/03/15 02:34:09;;;;;;;7.83;3.57;;;5.20;99.90;;;;;;4924671;29;20054;-75
2022/03/15 02:36:35;;;;;;;3.30;3.03;;;5.20;99.90;;;;;;4925338;29;20048;-75
2022/03/15 02:39:00;;;;;;;3.70;3.15;;;5.20;99.90;;;;;;4923516;29;20567;-76
2022/03/15 02:41:27;;;;;;;3.22;2.95;;;5.20;99.90;;;;;;4926076;29;20044;-76
2022/03/15 02:43:54;;;;;;;5.88;3.90;;;5.30;99.90;;;;;;4923189;29;20069;-76
2022/03/15 02:46:20;;;;;;;7.40;2.93;;;5.30;99.90;;;;;;4944366;29;20047;-76
2022/03/15 02:48:45;;;;;;;4.00;3.30;;;5.30;99.90;;;;;;4944004;28;20332;-76
2022/03/15 02:51:12;;;;;;;6.40;3.90;;;5.30;99.90;;;;;;4939310;29;20498;-75
2022/03/15 02:53:38;;;;;;;7.87;4.30;;;5.30;99.90;;;;;;4928062;29;20046;-76
2022/03/15 02:56:10;;;;;;;2.60;2.40;;;5.40;99.90;;;;;;4943446;28;21142;-76
2022/03/15 02:58:35;;;;;;;6.68;3.45;;;5.40;99.90;;;;;;4943305;28;20051;-75
2022/03/15 03:01:01;;;;;;;3.00;2.38;;;5.40;99.90;;;;;;4944068;28;20597;-75
2022/03/15 03:03:27;;;;;;;3.93;3.47;;;5.40;99.90;;;;;;4943840;28;20066;-75
2022/03/15 03:05:53;;;;;;;10.47;4.17;;;5.40;99.90;;;;;;4947049;28;20058;-75
2022/03/15 03:08:20;;;;;;;3.30;2.20;;;5.40;99.90;;;;;;4947686;28;20047;-76
2022/03/15 03:10:46;;;;;;;6.73;4.20;;;5.50;99.90;;;;;;4938682;28;20055;-76
2022/03/15 03:13:12;;;;;;;3.57;3.27;;;5.50;99.90;;;;;;4927935;29;20044;-75
2022/03/15 03:15:38;;;;;;;1.67;1.57;;;5.50;99.90;;;;;;4926969;29;20049;-75
2022/03/15 03:18:03;;;;;;;3.75;2.03;;;5.50;99.90;;;;;;4937100;28;20093;-76
2022/03/15 03:20:29;;;;;;;16.83;3.90;;;5.50;99.90;;;;;;4947293;28;20079;-75
2022/03/15 03:22:55;;;;;;;7.63;4.07;;;5.50;99.90;;;;;;4947093;28;20689;-75
2022/03/15 03:25:21;;;;;;;3.33;3.00;;;5.60;99.90;;;;;;4947620;28;20540;-76
2022/03/15 03:27:49;;;;;;;2.97;2.78;;;5.50;99.90;;;;;;4945383;28;20097;-76
2022/03/15 03:30:16;;;;;;;6.63;3.27;;;5.60;99.90;;;;;;4931718;28;20044;-76
2022/03/15 03:32:41;;;;;;;6.25;3.40;;;5.50;99.90;;;;;;4928603;29;20418;-75
2022/03/15 03:35:07;;;;;;;5.63;4.00;;;5.60;99.90;;;;;;4926465;29;20051;-76
2022/03/15 03:37:34;;;;;;;3.60;3.30;;;5.60;99.90;;;;;;4928168;29;20042;-75
2022/03/15 03:40:00;;;;;;;6.50;4.57;;;5.60;99.90;;;;;;4925790;29;20059;-76
2022/03/15 03:42:25;;;;;;;5.93;3.53;;;5.60;99.90;;;;;;4927206;29;20494;-76
2022/03/15 03:44:51;;;;;;;4.10;2.77;;;5.60;99.90;;;;;;4933749;28;20383;-75
2022/03/15 03:47:17;;;;;;;21.77;4.07;;;5.60;99.90;;;;;;4947011;28;20529;-75
2022/03/15 03:49:43;;;;;;;5.28;4.57;;;5.60;99.90;;;;;;4946167;28;20495;-75
2022/03/15 03:52:12;;;;;;;14.25;4.85;;;5.60;99.90;;;;;;4945676;28;20051;-75
2022/03/15 03:54:38;;;;;;;2.88;2.47;;;5.60;99.90;;;;;;4945456;28;20101;-76
2022/03/15 03:57:04;;;;;;;3.95;3.63;;;5.60;99.90;;;;;;4946173;28;20182;-75
2022/03/15 03:59:29;;;;;;;6.73;3.10;;;5.60;99.90;;;;;;4946897;28;20450;-76
2022/03/15 04:01:56;;;;;;;4.90;3.93;;;5.50;99.90;;;;;;4946317;28;20501;-76
2022/03/15 04:04:21;;;;;;;9.35;3.78;;;5.50;99.90;;;;;;4945537;28;20179;-75
2022/03/15 04:06:47;;;;;;;1.93;1.83;;;5.50;99.90;;;;;;4933016;28;20134;-76
2022/03/15 04:09:13;;;;;;;6.43;3.67;;;5.50;99.90;;;;;;4927751;29;20526;-76
2022/03/15 04:11:40;;;;;;;7.97;3.80;;;5.50;99.90;;;;;;4925639;29;20564;-75
2022/03/15 04:14:07;;;;;;;2.88;2.63;;;5.50;99.90;;;;;;4945004;28;20043;-76
2022/03/15 04:16:33;;;;;;;5.67;3.53;;;5.50;99.90;;;;;;4946552;28;20109;-75
2022/03/15 04:18:58;;;;;;;3.10;2.80;;;5.50;99.90;;;;;;4945344;28;20047;-76
2022/03/15 04:21:25;;;;;;;2.58;2.33;;;5.50;99.90;;;;;;4946308;28;20059;-76
2022/03/15 04:23:51;;;;;;;3.92;3.63;;;5.50;99.90;;;;;;4946164;28;20045;-76
2022/03/15 04:26:17;;;;;;;3.77;3.57;;;5.50;99.90;;;;;;4945838;28;20179;-76
2022/03/15 04:28:43;;;;;;;4.10;3.83;;;5.50;99.90;;;;;;4946231;28;20122;-75
2022/03/15 04:31:08;;;;;;;2.85;2.65;;;5.50;99.90;;;;;;4946206;28;20557;-76
2022/03/15 04:33:34;;;;;;;5.57;4.27;;;5.50;99.90;;;;;;4946341;28;20382;-76
2022/03/15 04:35:59;;;;;;;9.65;4.03;;;5.50;99.90;;;;;;4944903;28;20055;-76
2022/03/15 04:38:25;;;;;;;4.72;4.30;;;5.50;99.90;;;;;;4929468;28;20467;-76
2022/03/15 04:40:50;;;;;;;4.27;3.97;;;5.50;99.90;;;;;;4925315;29;20047;-76
2022/03/15 04:43:17;;;;;;;4.15;3.75;;;5.50;99.90;;;;;;4926488;29;20055;-75
2022/03/15 04:45:42;;;;;;;4.55;4.22;;;5.50;99.90;;;;;;4932663;29;20179;-76
2022/03/15 04:48:08;;;;;;;3.30;3.08;;;5.50;99.90;;;;;;4924829;29;20566;-76
2022/03/15 04:50:34;;;;;;;7.70;4.40;;;5.50;99.90;;;;;;4925771;29;20100;-75
2022/03/15 04:52:59;;;;;;;2.13;2.03;;;5.40;99.90;;;;;;4926198;29;20039;-76
2022/03/15 04:55:25;;;;;;;3.70;3.50;;;5.40;99.90;;;;;;4927053;29;20628;-76
2022/03/15 04:57:52;;;;;;;3.90;3.63;;;5.40;99.90;;;;;;4925877;29;20438;-76
2022/03/15 05:00:18;;;;;;;2.75;2.65;;;5.40;99.90;;;;;;4926339;29;20122;-76
2022/03/15 05:02:45;;;;;;;5.68;3.85;;;5.40;99.90;;;;;;4926827;29;20056;-75
2022/03/15 05:05:13;;;;;;;3.72;3.42;;;5.40;99.90;;;;;;4925418;29;20106;-75
2022/03/15 05:07:39;;;;;;;2.92;2.70;;;5.40;99.90;;;;;;4926334;29;20043;-75
2022/03/15 05:12:49;;;;;;;3.00;2.63;;;5.40;99.90;;;;;;4925530;29;20059;-76
2022/03/15 05:15:15;;;;;;;5.97;4.30;;;5.30;99.90;;;;;;4926538;29;20048;-75
2022/03/15 05:17:40;;;;;;;5.95;4.07;;;5.40;99.90;;;;;;4926527;29;20095;-75
2022/03/15 05:20:09;;;;;;;4.75;4.25;;;5.40;99.90;;;;;;4924704;29;20055;-75
2022/03/15 05:22:35;;;;;;;4.85;3.72;;;5.40;99.90;;;;;;4926365;29;20130;-75
2022/03/15 05:25:00;;;;;;;15.18;4.32;;;5.40;99.90;;;;;;4926743;29;20071;-75
2022/03/15 05:27:26;;;;;;;4.27;3.97;;;5.40;99.90;;;;;;4924927;29;20047;-75
2022/03/15 05:29:52;;;;;;;8.40;3.73;;;5.30;99.90;;;;;;4925656;29;20546;-76
2022/03/15 05:32:18;;;;;;;2.55;2.35;;;5.40;99.90;;;;;;4925919;29;20727;-75
2022/03/15 05:34:44;;;;;;;4.40;3.60;;;5.40;99.90;;;;;;4926379;29;20044;-76
2022/03/15 05:37:10;;;;;;;7.23;4.37;;;5.40;99.90;;;;;;4927354;29;20118;-75
2022/03/15 05:39:36;;;;;;;2.73;2.53;;;5.40;99.90;;;;;;4924481;29;20075;-75
2022/03/15 05:42:02;;;;;;;10.77;5.95;;;5.40;99.90;;;;;;4927710;29;20103;-76
2022/03/15 05:44:27;;;;;;;12.45;5.13;;;5.40;99.90;;;;;;4930173;28;20047;-75
2022/03/15 05:46:54;;;;;;;5.22;4.22;;;5.40;99.90;;;;;;4943392;28;20457;-76
2022/03/15 05:49:20;;;;;;;3.38;3.15;;;5.40;99.90;;;;;;4944483;28;20556;-75
2022/03/15 05:51:45;;;;;;;3.72;3.38;;;5.40;99.90;;;;;;4944577;28;20043;-76
2022/03/15 05:54:11;;;;;;;5.90;4.65;;;5.40;99.90;;;;;;4943352;28;20042;-75
2022/03/15 05:56:39;;;;;;;4.15;3.65;;;5.40;99.90;;;;;;4943998;28;20312;-76
2022/03/15 05:59:05;;;;;;;4.72;4.38;;;5.40;99.90;;;;;;4943106;28;20114;-75
2022/03/15 06:01:31;;;;;;;8.07;5.32;;;5.40;99.90;;;;;;4935064;28;20047;-75
2022/03/15 06:03:56;;;;;;;5.97;5.43;;;5.40;99.90;;;;;;4928485;29;20828;-75
2022/03/15 06:06:23;;;;;;;14.02;6.22;;;5.40;99.90;;;;;;4925868;29;20341;-75
2022/03/15 06:08:48;;;;;;;5.43;4.93;;;5.50;99.90;;;;;;4925178;29;20036;-75
2022/03/15 06:11:15;;;;;;;6.97;4.38;;;5.50;99.90;;;;;;4925194;29;20050;-75
2022/03/15 06:13:41;;;;;;;4.93;4.00;;;5.50;99.90;;;;;;4926809;29;20094;-76
2022/03/15 06:16:07;;;;;;;3.58;3.38;;;5.50;99.90;;;;;;4943761;28;20316;-75
2022/03/15 06:18:33;;;;;;;8.43;4.78;;;5.50;99.90;;;;;;4956727;28;20047;-75
2022/03/15 06:20:58;;;;;;;5.50;4.77;;;5.50;99.90;;;;;;4944013;28;20047;-74
2022/03/15 06:23:25;;;;;;;4.30;4.00;;;5.50;99.90;;;;;;4932366;28;20075;-75
2022/03/15 06:25:50;;;;;;;6.70;4.95;;;5.50;99.90;;;;;;4931262;29;20044;-77
2022/03/15 06:28:16;;;;;;;5.57;5.07;;;5.50;99.90;;;;;;4926997;29;20039;-74
2022/03/15 06:30:42;;;;;;;3.50;3.30;;;5.60;99.90;;;;;;4942394;29;20486;-75
2022/03/15 06:33:07;;;;;;;5.83;4.57;;;5.50;99.90;;;;;;4937543;28;20043;-74
2022/03/15 06:35:33;;;;;;;8.00;6.57;;;5.60;99.90;;;;;;4939859;29;20175;-74
2022/03/15 06:38:01;;;;;;;10.40;6.25;;;5.60;99.90;;;;;;4937651;28;20417;-74
2022/03/15 06:40:29;;;;;;;4.75;3.92;;;5.60;99.90;;;;;;4935978;28;20054;-74
2022/03/15 06:42:55;;;;;;;5.47;4.95;;;5.60;99.90;;;;;;4948185;28;20054;-76
2022/03/15 06:45:22;;;;;;;8.52;5.20;;;5.60;99.90;;;;;;4951757;28;20091;-74
2022/03/15 06:47:48;;;;;;;8.57;5.63;;;5.70;99.90;;;;;;4940611;28;20043;-75
2022/03/15 06:50:14;;;;;;;4.32;3.95;;;5.70;99.90;;;;;;4955025;28;20043;-72
2022/03/15 06:52:42;;;;;;;5.68;4.72;;;5.70;99.90;;;;;;4949745;28;20039;-73
2022/03/15 06:55:09;;;;;;;7.60;5.57;;;5.80;99.90;;;;;;4944781;29;20055;-73
2022/03/15 06:57:34;;;;;;;11.55;4.88;;;5.70;99.90;;;;;;4930260;28;20039;-72
2022/03/15 07:00:05;;;;;;;6.60;5.00;;;5.80;99.90;;;;;;4940349;29;20098;-72
2022/03/15 07:02:30;;;;;;;10.80;6.40;;;5.80;99.90;;;;;;4936848;28;20056;-72
2022/03/15 07:04:56;;;;;;;7.03;5.70;;;5.80;99.90;;;;;;4929169;29;20046;-72
2022/03/15 07:07:22;;;;;;;6.72;6.03;;;5.90;99.90;;;;;;4939875;29;20445;-72
2022/03/15 07:09:47;;;;;;;12.70;6.53;;;5.90;99.90;;;;;;4935437;28;20043;-72
2022/03/15 07:12:13;;;;;;;5.40;4.30;;;5.90;99.90;;;;;;4933944;28;20050;-72
2022/03/15 07:14:39;;;;;;;5.95;5.10;;;5.90;99.90;;;;;;4928521;29;20835;-72
2022/03/15 07:17:04;;;;;;;10.13;6.43;;;5.90;99.90;;;;;;4928256;29;20089;-72
2022/03/15 07:19:30;;;;;;;6.22;5.72;;;6.00;99.90;;;;;;4928702;29;20044;-72
2022/03/15 07:21:55;;;;;;;6.35;5.72;;;6.00;99.90;;;;;;4928184;29;20051;-72
2022/03/15 07:24:21;;;;;;;5.60;4.45;;;6.00;99.90;;;;;;4943368;28;20050;-73
2022/03/15 07:26:47;;;;;;;7.22;6.65;;;6.00;99.90;;;;;;4946520;28;20126;-73
2022/03/15 07:29:13;;;;;;;9.07;7.15;;;6.00;99.90;;;;;;4946700;28;20036;-73
2022/03/15 07:31:38;;;;;;;7.32;6.63;;;6.10;99.90;;;;;;4946883;28;20051;-73
2022/03/15 07:34:04;;;;;;;7.60;4.93;;;6.00;99.90;;;;;;4928555;29;20150;-74
2022/03/15 07:36:29;;;;;;;5.80;4.50;;;6.10;99.90;;;;;;4946664;28;20130;-73
2022/03/15 07:38:55;;;;;;;9.52;6.45;;;6.10;99.90;;;;;;4946367;28;20059;-72
2022/03/15 07:41:23;;;;;;;7.18;6.05;;;6.10;99.90;;;;;;4927371;28;20751;-72
2022/03/15 07:43:49;;;;;;;9.10;6.18;;;6.10;99.90;;;;;;4927239;29;20095;-72
2022/03/15 07:46:15;;;;;;;6.18;5.60;;;6.20;99.90;;;;;;4945035;29;20067;-72
2022/03/15 07:48:41;;;;;;;9.75;5.65;;;6.20;99.90;;;;;;4945259;28;20039;-72
2022/03/15 07:51:06;;;;;;;7.07;5.93;;;6.20;99.90;;;;;;4944342;28;20062;-73
2022/03/15 07:53:32;;;;;;;6.53;5.65;;;6.30;99.90;;;;;;4944643;28;20043;-74
2022/03/15 07:56:01;;;;;;;4.97;4.50;;;6.30;99.90;;;;;;4944188;28;20081;-75
2022/03/15 07:58:27;;;;;;;4.72;4.38;;;6.30;99.90;;;;;;4945521;28;20048;-73
2022/03/15 08:00:56;;;;;;;6.78;6.18;;;6.30;99.90;;;;;;4945518;29;20043;-73
2022/03/15 08:03:22;;;;;;;5.30;4.68;;;6.40;99.90;;;;;;4942559;29;20102;-74
2022/03/15 08:05:48;;;;;;;11.23;7.15;;;6.40;99.90;;;;;;4939062;28;20047;-72
2022/03/15 08:08:15;;;;;;;14.63;5.47;;;6.50;99.90;;;;;;4944414;28;20490;-73
2022/03/15 08:10:41;;;;;;;5.97;4.28;;;6.50;99.90;;;;;;4945173;28;20058;-74
2022/03/15 08:13:07;;;;;;;7.32;4.45;;;6.50;99.90;;;;;;4950370;28;20039;-76
2022/03/15 08:15:32;;;;;;;5.72;3.13;;;6.50;99.90;;;;;;4956156;28;20126;-76
2022/03/15 08:17:58;;;;;;;6.13;5.60;;;6.60;99.90;;;;;;4949456;28;20088;-75
2022/03/15 08:20:27;;;;;;;10.20;5.57;;;6.60;99.90;;;;;;4943312;29;20552;-75
2022/03/15 08:22:53;;;;;;;4.55;4.13;;;6.70;99.90;;;;;;4942970;28;20073;-72
2022/03/15 08:25:19;;;;;;;10.02;5.20;;;6.70;99.90;;;;;;4945257;28;20505;-72
2022/03/15 08:27:45;;;;;;;10.77;4.75;;;6.70;99.90;;;;;;4944564;28;20040;-72
2022/03/15 08:30:11;;;;;;;6.45;5.68;;;6.80;99.90;;;;;;4940879;28;20042;-72
2022/03/15 08:32:36;;;;;;;10.30;4.75;;;6.80;99.90;;;;;;4944939;28;20500;-72
2022/03/15 08:35:03;;;;;;;8.23;4.85;;;6.90;99.90;;;;;;4946734;28;20645;-71
2022/03/15 08:37:28;;;;;;;6.88;5.07;;;6.90;99.90;;;;;;4956470;28;20399;-72
2022/03/15 08:39:55;;;;;;;9.98;6.10;;;6.90;99.90;;;;;;4943647;28;20405;-72
2022/03/15 08:42:21;;;;;;;34.63;6.78;;;7.00;99.90;;;;;;4942454;28;20043;-72
2022/03/15 08:44:46;;;;;;;6.55;4.80;;;7.10;99.90;;;;;;4944190;28;20043;-71
2022/03/15 08:47:13;;;;;;;7.63;4.95;;;7.10;99.90;;;;;;4944047;28;20683;-71
2022/03/15 08:49:41;;;;;;;8.82;7.95;;;7.10;99.90;;;;;;4944455;28;20035;-72
2022/03/15 08:52:08;;;;;;;10.30;7.97;;;7.20;99.90;;;;;;4942607;28;20055;-75
2022/03/15 08:54:34;;;;;;;10.05;6.65;;;7.20;99.90;;;;;;4945300;28;20311;-73
2022/03/15 08:57:00;;;;;;;9.05;7.65;;;7.20;99.90;;;;;;4942188;28;20047;-73
2022/03/15 08:59:25;;;;;;;9.60;6.35;;;7.20;99.90;;;;;;4943509;28;20058;-73
2022/03/15 09:01:52;;;;;;;5.95;5.55;;;7.20;99.90;;;;;;4945098;28;20047;-73
2022/03/15 09:04:17;;;;;;;9.75;7.63;;;7.30;99.90;;;;;;4942796;28;20047;-73
2022/03/15 09:06:43;;;;;;;8.00;7.20;;;7.30;99.90;;;;;;4949195;28;20498;-73
2022/03/15 09:09:09;;;;;;;7.78;6.50;;;7.30;99.90;;;;;;4947255;28;20461;-73
2022/03/15 09:11:35;;;;;;;13.00;8.63;;;7.40;99.90;;;;;;4939024;28;20601;-73
2022/03/15 09:14:01;;;;;;;11.63;9.82;;;7.40;99.90;;;;;;4945393;28;20039;-73
2022/03/15 09:16:27;;;;;;;7.22;6.45;;;7.40;99.90;;;;;;4945469;28;20051;-73
2022/03/15 09:18:53;;;;;;;15.73;8.35;;;7.50;99.90;;;;;;4943858;28;20498;-72
2022/03/15 09:21:18;;;;;;;10.75;8.60;;;7.60;99.90;;;;;;4943484;28;20043;-72
2022/03/15 09:23:44;;;;;;;17.15;9.30;;;7.60;99.90;;;;;;4943689;28;20086;-72
2022/03/15 09:26:10;;;;;;;15.93;8.77;;;7.60;99.90;;;;;;4943981;28;20127;-73
2022/03/15 09:28:37;;;;;;;9.13;7.95;;;7.70;99.90;;;;;;4944757;28;20516;-73
2022/03/15 09:31:03;;;;;;;8.35;7.65;;;7.80;99.90;;;;;;4944046;28;20051;-73
2022/03/15 09:33:29;;;;;;;15.05;8.02;;;7.80;99.90;;;;;;4943612;28;20055;-72
2022/03/15 09:35:55;;;;;;;7.18;6.35;;;7.90;99.90;;;;;;4943631;28;20497;-73
2022/03/15 09:38:21;;;;;;;9.52;8.73;;;7.90;99.90;;;;;;4944105;28;20043;-73
2022/03/15 09:40:50;;;;;;;10.63;7.57;;;8.00;99.90;;;;;;4943666;28;20047;-73
2022/03/15 09:43:21;;;;;;;9.32;8.35;;;8.00;99.90;;;;;;4942383;29;20070;-73
2022/03/15 09:45:48;;;;;;;17.23;9.65;;;8.10;99.90;;;;;;4944027;28;20043;-73
2022/03/15 09:48:19;;;;;;;11.30;9.73;;;8.10;99.90;;;;;;4943799;28;20135;-73
2022/03/15 09:50:48;;;;;;;11.02;8.85;;;8.20;99.90;;;;;;4942970;28;20755;-73
2022/03/15 09:53:15;;;;;;;11.50;8.52;;;8.30;99.90;;;;;;4944023;28;20102;-73
2022/03/15 09:55:45;;;;;;;16.40;9.35;;;8.30;99.90;;;;;;4944032;28;20043;-73
2022/03/15 09:58:12;;;;;;;13.88;10.02;;;8.40;99.90;;;;;;4944191;28;20142;-73
2022/03/15 10:00:39;;;;;;;10.55;7.90;;;8.40;99.90;;;;;;4943894;28;20039;-73
2022/03/15 10:03:04;;;;;;;12.77;11.02;;;8.50;99.90;;;;;;4943561;28;20055;-73
2022/03/15 10:05:30;;;;;;;12.32;8.80;;;8.50;99.90;;;;;;4943491;28;20102;-73
2022/03/15 10:07:56;;;;;;;14.65;9.48;;;8.60;99.90;;;;;;4943244;28;20106;-73
2022/03/15 10:10:23;;;;;;;10.73;9.68;;;8.60;99.90;;;;;;4943619;28;20046;-74
2022/03/15 10:12:48;;;;;;;7.97;7.25;;;8.60;99.90;;;;;;4943388;28;20051;-73
2022/03/15 10:15:16;;;;;;;9.50;8.68;;;8.70;99.90;;;;;;4943752;28;20047;-73
2022/03/15 10:17:43;;;;;;;15.35;12.30;;;8.70;99.90;;;;;;4942826;29;20058;-72
2022/03/15 10:20:09;;;;;;;9.57;8.63;;;8.80;99.90;;;;;;4943285;28;20051;-73
2022/03/15 10:22:35;;;;;;;9.15;8.35;;;8.80;99.90;;;;;;4943277;28;20050;-73
2022/03/15 10:25:01;;;;;;;10.52;9.20;;;8.80;99.90;;;;;;4942182;28;20110;-72
2022/03/15 10:27:28;;;;;;;12.82;9.63;;;8.80;99.90;;;;;;4942952;28;20047;-73
2022/03/15 10:29:54;;;;;;;13.60;8.73;;;8.90;99.90;;;;;;4942046;29;20117;-73
2022/03/15 10:32:21;;;;;;;11.57;8.48;;;8.90;99.90;;;;;;4943966;28;20050;-73
2022/03/15 10:34:46;;;;;;;29.85;11.07;;;9.00;99.90;;;;;;4942881;28;20040;-73
2022/03/15 10:37:12;;;;;;;12.55;11.30;;;9.00;99.90;;;;;;4943685;28;20043;-73
2022/03/15 10:39:38;;;;;;;10.05;7.47;;;9.10;99.90;;;;;;4943763;28;20054;-73
2022/03/15 10:42:07;;;;;;;15.98;8.88;;;9.10;99.90;;;;;;4942576;28;20098;-73
2022/03/15 10:44:39;;;;;;;11.20;8.43;;;9.20;99.90;;;;;;4943197;28;20524;-73
2022/03/15 10:47:17;;;;;;;10.38;9.43;;;9.20;99.90;;;;;;4942803;28;20066;-73
2022/03/15 10:49:47;;;;;;;19.58;8.90;;;9.30;99.90;;;;;;4943749;28;20047;-73
2022/03/15 10:52:34;;;;;;;9.85;8.90;;;9.30;99.90;;;;;;4942568;28;20042;-73
2022/03/15 10:55:10;;;;;;;13.13;9.40;;;9.40;99.90;;;;;;4943099;28;20422;-73
2022/03/15 10:57:53;;;;;;;17.77;12.40;;;9.40;99.90;;;;;;4942442;28;20055;-73
2022/03/15 11:00:25;;;;;;;13.07;9.23;;;9.40;99.90;;;;;;4943298;28;20039;-73
2022/03/15 11:02:52;;;;;;;16.42;9.35;;;9.40;99.90;;;;;;4942921;28;20047;-73
2022/03/15 11:05:27;;;;;;;14.05;10.45;;;9.40;99.90;;;;;;4942137;29;20043;-73
2022/03/15 11:07:52;;;;;;;14.80;10.93;;;9.40;99.90;;;;;;4942875;28;20512;-73
2022/03/15 11:10:18;;;;;;;16.33;9.32;;;9.40;99.90;;;;;;4942832;28;20043;-73
2022/03/15 11:12:59;;;;;;;11.80;9.93;;;9.40;99.90;;;;;;4943457;29;20066;-73
2022/03/15 11:15:30;;;;;;;11.25;8.52;;;9.30;99.90;;;;;;4942840;28;20047;-73
2022/03/15 11:18:07;;;;;;;12.13;10.52;;;9.30;99.90;;;;;;4942219;28;20097;-73
2022/03/15 11:20:36;;;;;;;13.70;11.68;;;9.30;99.90;;;;;;4941518;28;20506;-73
2022/03/15 11:23:05;;;;;;;12.85;8.73;;;9.30;99.90;;;;;;4934220;28;20508;-73
2022/03/15 11:25:39;;;;;;;28.10;11.48;;;9.30;99.90;;;;;;4937722;28;20067;-75
2022/03/15 11:28:09;;;;;;;9.80;8.98;;;9.30;99.90;;;;;;4945054;28;20050;-73
2022/03/15 11:30:35;;;;;;;15.32;11.30;;;9.30;99.90;;;;;;4931840;29;20790;-73
2022/03/15 11:33:03;;;;;;;16.25;9.75;;;9.30;99.90;;;;;;4941155;29;20051;-74
2022/03/15 11:35:31;;;;;;;16.85;10.50;;;9.30;99.90;;;;;;4929645;29;20044;-73
2022/03/15 11:37:59;;;;;;;14.48;10.57;;;9.30;99.90;;;;;;4927682;29;20054;-73
2022/03/15 11:40:26;;;;;;;14.82;8.13;;;9.30;99.90;;;;;;4928588;29;20050;-73
2022/03/15 11:43:07;;;;;;;12.57;8.02;;;9.30;99.90;;;;;;4950233;28;20409;-72
2022/03/15 11:45:42;;;;;;;16.60;11.57;;;9.30;99.90;;;;;;4952446;28;20181;-74
2022/03/15 11:48:31;;;;;;;16.35;9.85;;;9.30;99.90;;;;;;4962272;28;20049;-74
2022/03/15 11:51:15;;;;;;;9.27;7.47;;;9.40;99.90;;;;;;4948829;28;20043;-74
2022/03/15 11:54:18;;;;;;;9.90;9.00;;;9.40;99.90;;;;;;4946022;29;20130;-73
2022/03/15 11:56:48;;;;;;;12.55;10.85;;;9.40;99.90;;;;;;4934563;29;20082;-73
2022/03/15 11:59:15;;;;;;;9.13;8.23;;;9.40;99.90;;;;;;4928018;29;20443;-73
2022/03/15 12:01:45;;;;;;;11.57;8.10;;;9.40;99.90;;;;;;4932877;29;20050;-73
2022/03/15 12:04:11;;;;;;;11.38;9.75;;;9.40;99.90;;;;;;4947165;28;20066;-73
2022/03/15 12:06:37;;;;;;;12.88;8.55;;;9.40;99.90;;;;;;4946628;28;20494;-73
2022/03/15 12:09:11;;;;;;;10.30;7.28;;;9.50;99.90;;;;;;4946681;28;20040;-74
2022/03/15 12:11:40;;;;;;;10.15;8.65;;;9.50;99.90;;;;;;4944471;28;20404;-73
2022/03/15 12:14:18;;;;;;;4.72;4.28;;;9.50;99.90;;;;;;4946497;28;20051;-75
2022/03/15 12:16:53;;;;;;;6.90;6.15;;;9.60;99.90;;;;;;4920476;29;20533;-73
2022/03/15 12:19:39;;;;;;;6.47;5.97;;;9.70;99.90;;;;;;4932817;29;20044;-74
2022/03/15 12:22:09;;;;;;;11.98;6.53;;;9.70;99.90;;;;;;4945990;28;20074;-73
2022/03/15 12:24:45;;;;;;;10.57;6.22;;;9.70;99.90;;;;;;4937319;28;20099;-74
2022/03/15 12:27:15;;;;;;;6.97;4.65;;;9.70;99.90;;;;;;4956517;28;20046;-73
2022/03/15 12:29:54;;;;;;;5.35;4.85;;;9.80;99.90;;;;;;4965918;28;20493;-73
2022/03/15 12:32:22;;;;;;;10.57;5.07;;;9.80;99.90;;;;;;4926832;29;20068;-73
2022/03/15 12:34:54;;;;;;;5.97;5.28;;;9.90;99.90;;;;;;4927895;29;20507;-74
2022/03/15 12:37:37;;;;;;;7.68;4.28;;;9.90;99.90;;;;;;4927245;29;20040;-73
2022/03/15 12:40:10;;;;;;;5.57;5.07;;;10.00;99.90;;;;;;4925919;29;20566;-73
2022/03/15 12:42:37;;;;;;;7.90;5.25;;;10.00;99.90;;;;;;4926710;29;20055;-73
2022/03/15 12:45:11;;;;;;;4.93;4.50;;;10.00;99.90;;;;;;4935720;29;20058;-73
2022/03/15 12:47:46;;;;;;;5.40;4.43;;;10.10;99.90;;;;;;4943571;28;20167;-73
2022/03/15 12:50:15;;;;;;;4.40;3.50;;;10.10;99.90;;;;;;4945932;28;20315;-74
2022/03/15 12:52:53;;;;;;;8.70;4.60;;;10.20;99.90;;;;;;4928049;28;20060;-73
2022/03/15 12:55:27;;;;;;;4.47;3.17;;;10.20;99.90;;;;;;4926006;29;20482;-74